Sao Domingos do Prata, Brazil
Current Conditions -  °F | °C
As of 8:00 PM on Wednesday 22 Oct 2014 (Local Time) from SBIP Reporting Station
Overcast Overcast  
Wind Chill: 75°   Ceiling: 7000
Heat Index: 75°   Visibility: 6mi
Dew Point: 63°   Wind: 2mph
Humidity: 65%   Direction: 60°ENE
Pressure: 30.09"   Gusts: NA
Location:  19.87°S, 42.97°W
Report Text: SBIP 222200Z 06002KT 9999 SCT030 OVC070 24/17 Q1019
Loading
Personal Weather Stations






























Interactive Weather Map
Tropical Storm Tracking
New forecast layout! Learn more

10-Day Weather Forecast

Advertisements
Track Severe Weather on mobile